sensor_id;sensor_type;location;lat;lon;timestamp;temperature;humidity
12811;DHT22;6470;47.654;7.896;2023-05-07T00:01:59;14.50;99.90
12811;DHT22;6470;47.654;7.896;2023-05-07T00:04:25;10.10;99.90
12811;DHT22;6470;47.654;7.896;2023-05-07T00:11:42;15.00;99.90
12811;DHT22;6470;47.654;7.896;2023-05-07T00:14:08;15.30;99.90
12811;DHT22;6470;47.654;7.896;2023-05-07T00:19:00;15.30;99.90
12811;DHT22;6470;47.654;7.896;2023-05-07T00:23:53;12.30;99.90
12811;DHT22;6470;47.654;7.896;2023-05-07T00:33:38;12.00;99.90
12811;DHT22;6470;47.654;7.896;2023-05-07T00:36:03;15.80;99.90
12811;DHT22;6470;47.654;7.896;2023-05-07T00:38:29;15.50;99.90
12811;DHT22;6470;47.654;7.896;2023-05-07T00:40:55;12.30;99.90
12811;DHT22;6470;47.654;7.896;2023-05-07T00:43:21;12.20;99.90
12811;DHT22;6470;47.654;7.896;2023-05-07T00:45:47;12.00;99.90
12811;DHT22;6470;47.654;7.896;2023-05-07T00:48:12;12.00;99.90
12811;DHT22;6470;47.654;7.896;2023-05-07T00:50:38;12.00;99.90
12811;DHT22;6470;47.654;7.896;2023-05-07T00:53:04;15.10;99.90
12811;DHT22;6470;47.654;7.896;2023-05-07T00:55:32;12.20;99.90
12811;DHT22;6470;47.654;7.896;2023-05-07T00:57:58;11.80;99.90
12811;DHT22;6470;47.654;7.896;2023-05-07T01:00:23;14.70;99.90
12811;DHT22;6470;47.654;7.896;2023-05-07T01:02:50;15.10;99.90
12811;DHT22;6470;47.654;7.896;2023-05-07T01:05:17;15.60;99.90
12811;DHT22;6470;47.654;7.896;2023-05-07T01:07:45;10.60;99.90
12811;DHT22;6470;47.654;7.896;2023-05-07T01:10:11;15.00;99.90
12811;DHT22;6470;47.654;7.896;2023-05-07T01:12:38;15.20;99.90
12811;DHT22;6470;47.654;7.896;2023-05-07T01:15:06;15.10;99.90
12811;DHT22;6470;47.654;7.896;2023-05-07T01:17:34;11.90;99.90
12811;DHT22;6470;47.654;7.896;2023-05-07T01:22:37;11.70;99.90
12811;DHT22;6470;47.654;7.896;2023-05-07T01:25:04;12.00;99.90
12811;DHT22;6470;47.654;7.896;2023-05-07T01:27:30;12.20;99.90
12811;DHT22;6470;47.654;7.896;2023-05-07T01:29:56;12.00;99.90
12811;DHT22;6470;47.654;7.896;2023-05-07T01:32:38;12.80;99.90
12811;DHT22;6470;47.654;7.896;2023-05-07T01:35:09;11.20;99.90
12811;DHT22;6470;47.654;7.896;2023-05-07T01:37:35;11.90;99.90
12811;DHT22;6470;47.654;7.896;2023-05-07T01:40:02;12.40;99.90
12811;DHT22;6470;47.654;7.896;2023-05-07T01:42:29;11.50;99.90
12811;DHT22;6470;47.654;7.896;2023-05-07T01:44:55;11.70;99.90
12811;DHT22;6470;47.654;7.896;2023-05-07T01:47:21;12.50;99.90
12811;DHT22;6470;47.654;7.896;2023-05-07T01:52:13;11.80;99.90
12811;DHT22;6470;47.654;7.896;2023-05-07T02:04:23;11.90;99.90
12811;DHT22;6470;47.654;7.896;2023-05-07T02:11:42;11.60;99.90
12811;DHT22;6470;47.654;7.896;2023-05-07T02:16:33;12.40;99.90
12811;DHT22;6470;47.654;7.896;2023-05-07T02:21:25;12.00;99.90
12811;DHT22;6470;47.654;7.896;2023-05-07T02:26:18;9.70;99.90
12811;DHT22;6470;47.654;7.896;2023-05-07T02:31:10;11.60;99.90
12811;DHT22;6470;47.654;7.896;2023-05-07T02:33:35;10.50;99.90
12811;DHT22;6470;47.654;7.896;2023-05-07T02:36:08;12.20;99.90
12811;DHT22;6470;47.654;7.896;2023-05-07T02:38:34;10.20;99.90
12811;DHT22;6470;47.654;7.896;2023-05-07T02:48:28;12.00;99.90
12811;DHT22;6470;47.654;7.896;2023-05-07T02:53:20;11.40;99.90
12811;DHT22;6470;47.654;7.896;2023-05-07T02:55:45;12.60;99.90
12811;DHT22;6470;47.654;7.896;2023-05-07T02:58:11;11.80;99.90
12811;DHT22;6470;47.654;7.896;2023-05-07T03:00:37;11.90;99.90
12811;DHT22;6470;47.654;7.896;2023-05-07T03:03:02;12.10;99.90
12811;DHT22;6470;47.654;7.896;2023-05-07T03:05:28;10.10;99.90
12811;DHT22;6470;47.654;7.896;2023-05-07T03:07:54;10.50;99.90
12811;DHT22;6470;47.654;7.896;2023-05-07T03:27:23;10.50;99.90
12811;DHT22;6470;47.654;7.896;2023-05-07T03:29:48;10.60;99.90
12811;DHT22;6470;47.654;7.896;2023-05-07T03:32:14;10.50;99.90
12811;DHT22;6470;47.654;7.896;2023-05-07T03:34:40;10.20;99.90
12811;DHT22;6470;47.654;7.896;2023-05-07T03:37:06;10.40;99.90
12811;DHT22;6470;47.654;7.896;2023-05-07T03:39:31;10.70;99.90
12811;DHT22;6470;47.654;7.896;2023-05-07T03:41:57;10.90;99.90
12811;DHT22;6470;47.654;7.896;2023-05-07T03:44:23;12.10;99.90
12811;DHT22;6470;47.654;7.896;2023-05-07T03:46:49;11.00;99.90
12811;DHT22;6470;47.654;7.896;2023-05-07T03:49:15;11.00;99.90
12811;DHT22;6470;47.654;7.896;2023-05-07T03:51:41;11.60;99.90
12811;DHT22;6470;47.654;7.896;2023-05-07T03:54:07;10.90;99.90
12811;DHT22;6470;47.654;7.896;2023-05-07T03:59:00;11.80;99.90
12811;DHT22;6470;47.654;7.896;2023-05-07T04:03:52;10.60;99.90
12811;DHT22;6470;47.654;7.896;2023-05-07T04:11:10;10.00;99.90
12811;DHT22;6470;47.654;7.896;2023-05-07T04:25:47;11.70;99.90
12811;DHT22;6470;47.654;7.896;2023-05-07T04:28:13;12.40;99.90
12811;DHT22;6470;47.654;7.896;2023-05-07T04:33:07;12.40;99.90
12811;DHT22;6470;47.654;7.896;2023-05-07T04:40:25;11.90;99.90
12811;DHT22;6470;47.654;7.896;2023-05-07T04:42:51;12.20;99.90
12811;DHT22;6470;47.654;7.896;2023-05-07T04:45:16;12.20;99.90
12811;DHT22;6470;47.654;7.896;2023-05-07T04:50:08;12.40;99.90
12811;DHT22;6470;47.654;7.896;2023-05-07T04:55:01;11.10;99.90
12811;DHT22;6470;47.654;7.896;2023-05-07T04:57:27;11.80;99.90
12811;DHT22;6470;47.654;7.896;2023-05-07T04:59:53;11.30;99.90
12811;DHT22;6470;47.654;7.896;2023-05-07T05:07:11;11.60;99.90
12811;DHT22;6470;47.654;7.896;2023-05-07T05:09:37;11.70;99.90
12811;DHT22;6470;47.654;7.896;2023-05-07T05:12:03;12.00;99.90
12811;DHT22;6470;47.654;7.896;2023-05-07T05:14:29;15.10;99.90
12811;DHT22;6470;47.654;7.896;2023-05-07T05:16:55;15.20;99.90
12811;DHT22;6470;47.654;7.896;2023-05-07T05:19:20;15.00;99.90
12811;DHT22;6470;47.654;7.896;2023-05-07T05:21:46;12.20;99.90
12811;DHT22;6470;47.654;7.896;2023-05-07T05:24:12;11.60;99.90
12811;DHT22;6470;47.654;7.896;2023-05-07T05:26:37;15.00;99.90
12811;DHT22;6470;47.654;7.896;2023-05-07T05:29:03;15.00;99.90
12811;DHT22;6470;47.654;7.896;2023-05-07T05:31:29;14.40;99.90
12811;DHT22;6470;47.654;7.896;2023-05-07T05:33:55;15.60;99.90
12811;DHT22;6470;47.654;7.896;2023-05-07T05:38:46;12.80;99.90
12811;DHT22;6470;47.654;7.896;2023-05-07T05:41:12;14.90;99.90
12811;DHT22;6470;47.654;7.896;2023-05-07T05:43:38;14.90;99.90
12811;DHT22;6470;47.654;7.896;2023-05-07T05:48:30;16.10;99.90
12811;DHT22;6470;47.654;7.896;2023-05-07T05:50:56;15.00;99.90
12811;DHT22;6470;47.654;7.896;2023-05-07T05:53:21;13.90;99.90
12811;DHT22;6470;47.654;7.896;2023-05-07T05:55:47;15.20;99.90
12811;DHT22;6470;47.654;7.896;2023-05-07T05:58:13;14.20;99.90
12811;DHT22;6470;47.654;7.896;2023-05-07T06:00:40;12.20;99.90
12811;DHT22;6470;47.654;7.896;2023-05-07T06:03:06;14.60;99.90
12811;DHT22;6470;47.654;7.896;2023-05-07T06:05:31;15.50;99.90
12811;DHT22;6470;47.654;7.896;2023-05-07T06:07:57;15.70;99.90
12811;DHT22;6470;47.654;7.896;2023-05-07T06:12:49;15.80;99.90
12811;DHT22;6470;47.654;7.896;2023-05-07T06:17:41;15.60;99.90
12811;DHT22;6470;47.654;7.896;2023-05-07T06:20:07;16.20;99.90
12811;DHT22;6470;47.654;7.896;2023-05-07T06:22:33;15.80;99.90
12811;DHT22;6470;47.654;7.896;2023-05-07T06:24:58;15.30;99.90
12811;DHT22;6470;47.654;7.896;2023-05-07T06:27:24;15.80;99.90
12811;DHT22;6470;47.654;7.896;2023-05-07T06:29:50;15.80;99.90
12811;DHT22;6470;47.654;7.896;2023-05-07T06:32:16;15.20;99.90
12811;DHT22;6470;47.654;7.896;2023-05-07T06:34:42;16.00;99.90
12811;DHT22;6470;47.654;7.896;2023-05-07T06:37:08;15.90;99.90
12811;DHT22;6470;47.654;7.896;2023-05-07T06:39:34;15.60;99.90
12811;DHT22;6470;47.654;7.896;2023-05-07T06:42:02;15.70;99.90
12811;DHT22;6470;47.654;7.896;2023-05-07T06:44:30;14.90;99.90
12811;DHT22;6470;47.654;7.896;2023-05-07T06:46:56;16.40;99.90
12811;DHT22;6470;47.654;7.896;2023-05-07T06:49:22;15.10;99.90
12811;DHT22;6470;47.654;7.896;2023-05-07T06:51:47;15.50;99.90
12811;DHT22;6470;47.654;7.896;2023-05-07T06:54:13;15.80;99.90
12811;DHT22;6470;47.654;7.896;2023-05-07T06:56:39;16.30;99.90
12811;DHT22;6470;47.654;7.896;2023-05-07T06:59:06;16.30;99.90
12811;DHT22;6470;47.654;7.896;2023-05-07T07:01:32;16.30;99.90
12811;DHT22;6470;47.654;7.896;2023-05-07T07:03:57;17.00;99.90
12811;DHT22;6470;47.654;7.896;2023-05-07T07:06:23;17.80;99.90
12811;DHT22;6470;47.654;7.896;2023-05-07T07:08:49;17.90;99.90
12811;DHT22;6470;47.654;7.896;2023-05-07T07:11:15;17.60;99.90
12811;DHT22;6470;47.654;7.896;2023-05-07T07:13:41;18.00;99.90
12811;DHT22;6470;47.654;7.896;2023-05-07T07:18:34;19.30;99.90
12811;DHT22;6470;47.654;7.896;2023-05-07T07:21:01;18.50;99.90
12811;DHT22;6470;47.654;7.896;2023-05-07T07:23:26;18.90;99.90
12811;DHT22;6470;47.654;7.896;2023-05-07T07:28:21;19.40;99.90
12811;DHT22;6470;47.654;7.896;2023-05-07T07:30:46;19.00;99.90
12811;DHT22;6470;47.654;7.896;2023-05-07T07:33:12;19.20;99.90
12811;DHT22;6470;47.654;7.896;2023-05-07T07:35:38;19.60;99.90
12811;DHT22;6470;47.654;7.896;2023-05-07T07:38:03;20.10;99.90
12811;DHT22;6470;47.654;7.896;2023-05-07T07:42:56;19.50;99.90
12811;DHT22;6470;47.654;7.896;2023-05-07T07:50:14;19.50;99.90
12811;DHT22;6470;47.654;7.896;2023-05-07T07:52:40;16.50;99.90
12811;DHT22;6470;47.654;7.896;2023-05-07T07:55:06;19.30;99.90
12811;DHT22;6470;47.654;7.896;2023-05-07T07:57:32;19.40;99.90
12811;DHT22;6470;47.654;7.896;2023-05-07T07:59:58;19.90;99.90
12811;DHT22;6470;47.654;7.896;2023-05-07T08:02:24;19.80;99.90
12811;DHT22;6470;47.654;7.896;2023-05-07T08:04:49;19.80;99.90
12811;DHT22;6470;47.654;7.896;2023-05-07T08:07:15;19.80;99.90
12811;DHT22;6470;47.654;7.896;2023-05-07T08:09:43;19.50;99.90
12811;DHT22;6470;47.654;7.896;2023-05-07T08:12:09;19.60;99.90
12811;DHT22;6470;47.654;7.896;2023-05-07T08:14:35;19.50;99.90
12811;DHT22;6470;47.654;7.896;2023-05-07T08:17:01;19.30;99.90
12811;DHT22;6470;47.654;7.896;2023-05-07T08:19:27;19.50;99.90
12811;DHT22;6470;47.654;7.896;2023-05-07T08:21:53;19.80;99.90
12811;DHT22;6470;47.654;7.896;2023-05-07T08:24:18;20.30;99.90
12811;DHT22;6470;47.654;7.896;2023-05-07T08:34:06;21.40;99.90
12811;DHT22;6470;47.654;7.896;2023-05-07T08:38:59;21.10;99.90
12811;DHT22;6470;47.654;7.896;2023-05-07T08:41:25;21.00;99.90
12811;DHT22;6470;47.654;7.896;2023-05-07T08:43:51;20.70;99.90
12811;DHT22;6470;47.654;7.896;2023-05-07T08:46:21;20.80;99.90
12811;DHT22;6470;47.654;7.896;2023-05-07T08:48:51;20.30;99.90
12811;DHT22;6470;47.654;7.896;2023-05-07T08:51:20;20.90;99.90
12811;DHT22;6470;47.654;7.896;2023-05-07T08:53:47;21.80;99.90
12811;DHT22;6470;47.654;7.896;2023-05-07T08:56:17;21.30;99.90
12811;DHT22;6470;47.654;7.896;2023-05-07T08:58:44;21.90;99.90
12811;DHT22;6470;47.654;7.896;2023-05-07T09:01:15;19.20;99.90
12811;DHT22;6470;47.654;7.896;2023-05-07T09:03:44;21.90;99.90
12811;DHT22;6470;47.654;7.896;2023-05-07T09:06:10;21.70;99.90
12811;DHT22;6470;47.654;7.896;2023-05-07T09:08:36;22.00;99.90
12811;DHT22;6470;47.654;7.896;2023-05-07T09:11:03;21.90;99.90
12811;DHT22;6470;47.654;7.896;2023-05-07T09:13:29;21.60;99.90
12811;DHT22;6470;47.654;7.896;2023-05-07T09:15:55;19.10;99.90
12811;DHT22;6470;47.654;7.896;2023-05-07T09:20:47;22.10;99.90
12811;DHT22;6470;47.654;7.896;2023-05-07T09:23:14;21.80;99.90
12811;DHT22;6470;47.654;7.896;2023-05-07T09:25:39;22.10;99.90
12811;DHT22;6470;47.654;7.896;2023-05-07T09:28:05;22.00;99.90
12811;DHT22;6470;47.654;7.896;2023-05-07T09:30:33;22.10;99.90
12811;DHT22;6470;47.654;7.896;2023-05-07T09:33:01;22.10;99.90
12811;DHT22;6470;47.654;7.896;2023-05-07T09:35:27;22.50;99.90
12811;DHT22;6470;47.654;7.896;2023-05-07T09:37:57;23.30;99.90
12811;DHT22;6470;47.654;7.896;2023-05-07T09:40:28;22.90;99.90
12811;DHT22;6470;47.654;7.896;2023-05-07T09:42:55;22.50;99.90
12811;DHT22;6470;47.654;7.896;2023-05-07T09:45:27;22.00;99.90
12811;DHT22;6470;47.654;7.896;2023-05-07T09:47:57;23.30;99.90
12811;DHT22;6470;47.654;7.896;2023-05-07T09:50:34;22.40;99.90
12811;DHT22;6470;47.654;7.896;2023-05-07T09:53:01;21.70;99.90
12811;DHT22;6470;47.654;7.896;2023-05-07T09:55:28;22.70;99.90
12811;DHT22;6470;47.654;7.896;2023-05-07T09:57:55;23.20;99.90
12811;DHT22;6470;47.654;7.896;2023-05-07T10:00:22;23.80;99.90
12811;DHT22;6470;47.654;7.896;2023-05-07T10:02:52;22.60;99.90
12811;DHT22;6470;47.654;7.896;2023-05-07T10:05:18;22.50;99.90
12811;DHT22;6470;47.654;7.896;2023-05-07T10:07:46;22.10;99.90
12811;DHT22;6470;47.654;7.896;2023-05-07T10:10:12;21.70;99.90
12811;DHT22;6470;47.654;7.896;2023-05-07T10:12:38;22.50;99.90
12811;DHT22;6470;47.654;7.896;2023-05-07T10:15:07;21.90;99.90
12811;DHT22;6470;47.654;7.896;2023-05-07T10:17:36;21.40;99.90
12811;DHT22;6470;47.654;7.896;2023-05-07T10:20:02;21.20;99.90
12811;DHT22;6470;47.654;7.896;2023-05-07T10:22:31;21.50;99.90
12811;DHT22;6470;47.654;7.896;2023-05-07T10:24:59;21.10;99.90
12811;DHT22;6470;47.654;7.896;2023-05-07T10:27:28;22.40;99.90
12811;DHT22;6470;47.654;7.896;2023-05-07T10:32:54;22.20;99.90
12811;DHT22;6470;47.654;7.896;2023-05-07T10:35:24;21.90;99.90
12811;DHT22;6470;47.654;7.896;2023-05-07T10:40:17;21.40;99.90
12811;DHT22;6470;47.654;7.896;2023-05-07T10:42:55;21.80;99.90
12811;DHT22;6470;47.654;7.896;2023-05-07T10:45:22;21.80;99.90
12811;DHT22;6470;47.654;7.896;2023-05-07T10:48:07;21.10;99.90
12811;DHT22;6470;47.654;7.896;2023-05-07T10:55:50;21.20;99.90
12811;DHT22;6470;47.654;7.896;2023-05-07T10:58:27;21.30;99.90
12811;DHT22;6470;47.654;7.896;2023-05-07T11:01:01;21.70;99.90
12811;DHT22;6470;47.654;7.896;2023-05-07T11:03:28;21.50;99.90
12811;DHT22;6470;47.654;7.896;2023-05-07T11:06:11;22.10;99.90
12811;DHT22;6470;47.654;7.896;2023-05-07T11:08:57;20.80;99.90
12811;DHT22;6470;47.654;7.896;2023-05-07T11:11:46;21.20;99.90
12811;DHT22;6470;47.654;7.896;2023-05-07T11:14:14;21.20;99.90
12811;DHT22;6470;47.654;7.896;2023-05-07T11:16:41;21.30;99.90
12811;DHT22;6470;47.654;7.896;2023-05-07T11:19:08;21.20;99.90
12811;DHT22;6470;47.654;7.896;2023-05-07T11:21:39;21.30;99.90
12811;DHT22;6470;47.654;7.896;2023-05-07T11:24:07;22.00;99.90
12811;DHT22;6470;47.654;7.896;2023-05-07T11:26:49;21.20;99.90
12811;DHT22;6470;47.654;7.896;2023-05-07T11:29:20;21.10;99.90
12811;DHT22;6470;47.654;7.896;2023-05-07T11:31:51;21.20;99.90
12811;DHT22;6470;47.654;7.896;2023-05-07T11:34:21;21.30;99.90
12811;DHT22;6470;47.654;7.896;2023-05-07T11:36:48;22.40;99.90
12811;DHT22;6470;47.654;7.896;2023-05-07T11:39:25;22.70;99.90
12811;DHT22;6470;47.654;7.896;2023-05-07T11:41:51;22.70;99.90
12811;DHT22;6470;47.654;7.896;2023-05-07T11:44:16;23.20;99.90
12811;DHT22;6470;47.654;7.896;2023-05-07T11:46:45;23.10;99.90
12811;DHT22;6470;47.654;7.896;2023-05-07T11:49:11;23.50;99.90
12811;DHT22;6470;47.654;7.896;2023-05-07T11:51:37;23.50;99.90
12811;DHT22;6470;47.654;7.896;2023-05-07T11:54:04;23.50;99.90
12811;DHT22;6470;47.654;7.896;2023-05-07T11:56:34;23.00;99.90
12811;DHT22;6470;47.654;7.896;2023-05-07T11:59:01;22.50;99.90
12811;DHT22;6470;47.654;7.896;2023-05-07T12:01:26;22.40;99.90
12811;DHT22;6470;47.654;7.896;2023-05-07T12:06:18;22.20;99.90
12811;DHT22;6470;47.654;7.896;2023-05-07T12:08:45;21.60;99.90
12811;DHT22;6470;47.654;7.896;2023-05-07T12:11:23;21.60;99.90
12811;DHT22;6470;47.654;7.896;2023-05-07T12:13:49;21.40;99.90
12811;DHT22;6470;47.654;7.896;2023-05-07T12:16:14;21.10;99.90
12811;DHT22;6470;47.654;7.896;2023-05-07T12:18:41;20.60;99.90
12811;DHT22;6470;47.654;7.896;2023-05-07T12:21:07;20.10;99.90
12811;DHT22;6470;47.654;7.896;2023-05-07T12:23:36;20.10;99.90
12811;DHT22;6470;47.654;7.896;2023-05-07T12:26:02;19.90;99.90
12811;DHT22;6470;47.654;7.896;2023-05-07T12:28:28;19.60;99.90
12811;DHT22;6470;47.654;7.896;2023-05-07T12:30:56;18.40;99.90
12811;DHT22;6470;47.654;7.896;2023-05-07T12:33:26;17.90;99.90
12811;DHT22;6470;47.654;7.896;2023-05-07T12:35:53;18.40;99.90
12811;DHT22;6470;47.654;7.896;2023-05-07T12:38:19;17.80;99.90
12811;DHT22;6470;47.654;7.896;2023-05-07T12:40:47;17.70;99.90
12811;DHT22;6470;47.654;7.896;2023-05-07T12:43:26;17.30;99.90
12811;DHT22;6470;47.654;7.896;2023-05-07T12:45:55;17.50;99.90
12811;DHT22;6470;47.654;7.896;2023-05-07T12:48:21;17.60;99.90
12811;DHT22;6470;47.654;7.896;2023-05-07T12:50:51;17.20;99.90
12811;DHT22;6470;47.654;7.896;2023-05-07T12:53:19;17.30;99.90
12811;DHT22;6470;47.654;7.896;2023-05-07T12:55:47;17.10;99.90
12811;DHT22;6470;47.654;7.896;2023-05-07T12:58:21;17.50;99.90
12811;DHT22;6470;47.654;7.896;2023-05-07T13:00:49;17.30;99.90
12811;DHT22;6470;47.654;7.896;2023-05-07T13:03:41;18.00;99.90
12811;DHT22;6470;47.654;7.896;2023-05-07T13:06:13;17.50;99.90
12811;DHT22;6470;47.654;7.896;2023-05-07T13:08:40;16.50;99.90
12811;DHT22;6470;47.654;7.896;2023-05-07T13:11:09;16.20;99.90
12811;DHT22;6470;47.654;7.896;2023-05-07T13:13:37;16.30;99.90
12811;DHT22;6470;47.654;7.896;2023-05-07T13:16:04;16.90;99.90
12811;DHT22;6470;47.654;7.896;2023-05-07T13:18:31;16.80;99.90
12811;DHT22;6470;47.654;7.896;2023-05-07T13:20:58;17.20;99.90
12811;DHT22;6470;47.654;7.896;2023-05-07T13:23:24;16.60;99.90
12811;DHT22;6470;47.654;7.896;2023-05-07T13:25:50;18.20;99.90
12811;DHT22;6470;47.654;7.896;2023-05-07T13:28:18;17.60;99.90
12811;DHT22;6470;47.654;7.896;2023-05-07T13:30:43;18.40;99.90
12811;DHT22;6470;47.654;7.896;2023-05-07T13:33:09;18.30;99.90
12811;DHT22;6470;47.654;7.896;2023-05-07T13:35:35;18.70;99.90
12811;DHT22;6470;47.654;7.896;2023-05-07T13:38:01;18.90;99.90
12811;DHT22;6470;47.654;7.896;2023-05-07T13:40:27;19.90;99.90
12811;DHT22;6470;47.654;7.896;2023-05-07T13:42:53;20.60;99.90
12811;DHT22;6470;47.654;7.896;2023-05-07T13:45:19;20.40;99.90
12811;DHT22;6470;47.654;7.896;2023-05-07T13:47:45;19.50;99.90
12811;DHT22;6470;47.654;7.896;2023-05-07T13:50:11;18.80;99.90
12811;DHT22;6470;47.654;7.896;2023-05-07T13:52:40;19.30;99.90
12811;DHT22;6470;47.654;7.896;2023-05-07T13:55:06;20.00;99.90
12811;DHT22;6470;47.654;7.896;2023-05-07T13:57:32;19.40;99.90
12811;DHT22;6470;47.654;7.896;2023-05-07T13:59:58;19.20;99.90
12811;DHT22;6470;47.654;7.896;2023-05-07T14:02:24;19.80;99.90
12811;DHT22;6470;47.654;7.896;2023-05-07T14:04:49;19.60;99.90
12811;DHT22;6470;47.654;7.896;2023-05-07T14:07:15;20.70;99.90
12811;DHT22;6470;47.654;7.896;2023-05-07T14:09:41;19.20;99.90
12811;DHT22;6470;47.654;7.896;2023-05-07T14:12:06;20.30;99.90
12811;DHT22;6470;47.654;7.896;2023-05-07T14:14:32;20.10;99.90
12811;DHT22;6470;47.654;7.896;2023-05-07T14:16:58;20.30;99.90
12811;DHT22;6470;47.654;7.896;2023-05-07T14:21:50;21.00;99.90
12811;DHT22;6470;47.654;7.896;2023-05-07T14:24:15;20.90;99.90
12811;DHT22;6470;47.654;7.896;2023-05-07T14:26:41;21.90;99.90
12811;DHT22;6470;47.654;7.896;2023-05-07T14:29:06;21.40;99.90
12811;DHT22;6470;47.654;7.896;2023-05-07T14:31:32;21.70;99.90
12811;DHT22;6470;47.654;7.896;2023-05-07T14:33:58;18.30;99.90
12811;DHT22;6470;47.654;7.896;2023-05-07T14:36:24;18.20;99.90
12811;DHT22;6470;47.654;7.896;2023-05-07T14:38:52;20.80;99.90
12811;DHT22;6470;47.654;7.896;2023-05-07T14:41:19;20.90;99.90
12811;DHT22;6470;47.654;7.896;2023-05-07T14:43:46;20.80;99.90
12811;DHT22;6470;47.654;7.896;2023-05-07T14:46:19;21.00;99.90
12811;DHT22;6470;47.654;7.896;2023-05-07T14:48:45;20.40;99.90
12811;DHT22;6470;47.654;7.896;2023-05-07T14:51:13;20.80;99.90
12811;DHT22;6470;47.654;7.896;2023-05-07T14:53:41;20.60;99.90
12811;DHT22;6470;47.654;7.896;2023-05-07T14:56:07;20.60;99.90
12811;DHT22;6470;47.654;7.896;2023-05-07T14:58:33;20.60;99.90
12811;DHT22;6470;47.654;7.896;2023-05-07T15:01:00;20.80;99.90
12811;DHT22;6470;47.654;7.896;2023-05-07T15:03:25;20.60;99.90
12811;DHT22;6470;47.654;7.896;2023-05-07T15:05:51;20.50;99.90
12811;DHT22;6470;47.654;7.896;2023-05-07T15:08:20;20.40;99.90
12811;DHT22;6470;47.654;7.896;2023-05-07T15:10:46;20.40;99.90
12811;DHT22;6470;47.654;7.896;2023-05-07T15:13:11;21.00;99.90
12811;DHT22;6470;47.654;7.896;2023-05-07T15:15:41;20.40;99.90
12811;DHT22;6470;47.654;7.896;2023-05-07T15:18:08;19.60;99.90
12811;DHT22;6470;47.654;7.896;2023-05-07T15:20:33;20.00;99.90
12811;DHT22;6470;47.654;7.896;2023-05-07T15:22:59;20.20;99.90
12811;DHT22;6470;47.654;7.896;2023-05-07T15:25:25;17.90;99.90
12811;DHT22;6470;47.654;7.896;2023-05-07T15:27:51;20.40;99.90
12811;DHT22;6470;47.654;7.896;2023-05-07T15:30:17;20.50;99.90
12811;DHT22;6470;47.654;7.896;2023-05-07T15:32:45;20.90;99.90
12811;DHT22;6470;47.654;7.896;2023-05-07T15:35:11;20.20;99.90
12811;DHT22;6470;47.654;7.896;2023-05-07T15:37:36;17.70;99.90
12811;DHT22;6470;47.654;7.896;2023-05-07T15:40:02;20.70;99.90
12811;DHT22;6470;47.654;7.896;2023-05-07T15:42:30;20.80;99.90
12811;DHT22;6470;47.654;7.896;2023-05-07T15:44:56;20.80;99.90
12811;DHT22;6470;47.654;7.896;2023-05-07T15:47:21;20.50;99.90
12811;DHT22;6470;47.654;7.896;2023-05-07T15:49:47;20.20;99.90
12811;DHT22;6470;47.654;7.896;2023-05-07T15:54:40;20.80;99.90
12811;DHT22;6470;47.654;7.896;2023-05-07T15:57:06;19.90;99.90
12811;DHT22;6470;47.654;7.896;2023-05-07T15:59:32;19.70;99.90
12811;DHT22;6470;47.654;7.896;2023-05-07T16:01:59;19.10;99.90
12811;DHT22;6470;47.654;7.896;2023-05-07T16:04:25;18.90;99.90
12811;DHT22;6470;47.654;7.896;2023-05-07T16:06:53;19.90;99.90
12811;DHT22;6470;47.654;7.896;2023-05-07T16:09:19;19.60;99.90
12811;DHT22;6470;47.654;7.896;2023-05-07T16:14:11;18.90;99.90
12811;DHT22;6470;47.654;7.896;2023-05-07T16:16:37;19.80;99.90
12811;DHT22;6470;47.654;7.896;2023-05-07T16:19:05;19.30;99.90
12811;DHT22;6470;47.654;7.896;2023-05-07T16:21:31;18.80;99.90
12811;DHT22;6470;47.654;7.896;2023-05-07T16:23:57;20.10;99.90
12811;DHT22;6470;47.654;7.896;2023-05-07T16:26:23;19.90;99.90
12811;DHT22;6470;47.654;7.896;2023-05-07T16:28:49;19.20;99.90
12811;DHT22;6470;47.654;7.896;2023-05-07T16:31:16;19.80;99.90
12811;DHT22;6470;47.654;7.896;2023-05-07T16:33:42;19.60;99.90
12811;DHT22;6470;47.654;7.896;2023-05-07T16:36:08;19.50;99.90
12811;DHT22;6470;47.654;7.896;2023-05-07T16:38:33;19.20;99.90
12811;DHT22;6470;47.654;7.896;2023-05-07T16:40:59;19.10;99.90
12811;DHT22;6470;47.654;7.896;2023-05-07T16:43:25;19.60;99.90
12811;DHT22;6470;47.654;7.896;2023-05-07T16:45:51;18.90;99.90
12811;DHT22;6470;47.654;7.896;2023-05-07T16:48:17;18.90;99.90
12811;DHT22;6470;47.654;7.896;2023-05-07T16:50:43;19.20;99.90
12811;DHT22;6470;47.654;7.896;2023-05-07T16:53:10;19.70;99.90
12811;DHT22;6470;47.654;7.896;2023-05-07T16:55:36;19.20;99.90
12811;DHT22;6470;47.654;7.896;2023-05-07T16:58:06;18.50;99.90
12811;DHT22;6470;47.654;7.896;2023-05-07T17:00:33;18.90;99.90
12811;DHT22;6470;47.654;7.896;2023-05-07T17:02:59;17.80;99.90
12811;DHT22;6470;47.654;7.896;2023-05-07T17:05:25;18.20;99.90
12811;DHT22;6470;47.654;7.896;2023-05-07T17:07:54;18.00;99.90
12811;DHT22;6470;47.654;7.896;2023-05-07T17:10:20;18.40;99.90
12811;DHT22;6470;47.654;7.896;2023-05-07T17:15:12;18.90;99.90
12811;DHT22;6470;47.654;7.896;2023-05-07T17:17:39;18.10;99.90
12811;DHT22;6470;47.654;7.896;2023-05-07T17:20:06;18.10;99.90
12811;DHT22;6470;47.654;7.896;2023-05-07T17:22:31;18.40;99.90
12811;DHT22;6470;47.654;7.896;2023-05-07T17:24:57;15.20;99.90
12811;DHT22;6470;47.654;7.896;2023-05-07T17:27:24;18.10;99.90
12811;DHT22;6470;47.654;7.896;2023-05-07T17:29:50;17.90;99.90
12811;DHT22;6470;47.654;7.896;2023-05-07T17:32:16;17.70;99.90
12811;DHT22;6470;47.654;7.896;2023-05-07T17:34:41;17.10;99.90
12811;DHT22;6470;47.654;7.896;2023-05-07T17:37:07;14.30;99.90
12811;DHT22;6470;47.654;7.896;2023-05-07T17:39:33;17.10;99.90
12811;DHT22;6470;47.654;7.896;2023-05-07T17:41:59;17.10;99.90
12811;DHT22;6470;47.654;7.896;2023-05-07T17:44:24;16.90;99.90
12811;DHT22;6470;47.654;7.896;2023-05-07T17:46:50;17.10;99.90
12811;DHT22;6470;47.654;7.896;2023-05-07T17:49:16;16.70;99.90
12811;DHT22;6470;47.654;7.896;2023-05-07T17:51:42;13.60;99.90
12811;DHT22;6470;47.654;7.896;2023-05-07T17:56:33;15.90;99.90
12811;DHT22;6470;47.654;7.896;2023-05-07T17:58:59;16.50;99.90
12811;DHT22;6470;47.654;7.896;2023-05-07T18:01:25;17.20;99.90
12811;DHT22;6470;47.654;7.896;2023-05-07T18:06:17;16.80;99.90
12811;DHT22;6470;47.654;7.896;2023-05-07T18:08:44;16.60;99.90
12811;DHT22;6470;47.654;7.896;2023-05-07T18:11:10;16.40;99.90
12811;DHT22;6470;47.654;7.896;2023-05-07T18:13:36;16.30;99.90
12811;DHT22;6470;47.654;7.896;2023-05-07T18:16:02;16.70;99.90
12811;DHT22;6470;47.654;7.896;2023-05-07T18:18:27;16.10;99.90
12811;DHT22;6470;47.654;7.896;2023-05-07T18:20:58;16.10;99.90
12811;DHT22;6470;47.654;7.896;2023-05-07T18:23:25;15.70;99.90
12811;DHT22;6470;47.654;7.896;2023-05-07T18:25:51;16.30;99.90
12811;DHT22;6470;47.654;7.896;2023-05-07T18:28:16;16.10;99.90
12811;DHT22;6470;47.654;7.896;2023-05-07T18:30:42;16.50;99.90
12811;DHT22;6470;47.654;7.896;2023-05-07T18:33:08;15.90;99.90
12811;DHT22;6470;47.654;7.896;2023-05-07T18:35:34;15.80;99.90
12811;DHT22;6470;47.654;7.896;2023-05-07T18:37:59;16.40;99.90